createdAt,value
2017-10-19T00:00:43.436Z,58.10
2017-10-19T00:01:44.719Z,58.10
2017-10-19T00:02:46.047Z,58.10
2017-10-19T00:03:47.344Z,57.90
2017-10-19T00:04:48.669Z,58.00
2017-10-19T00:05:49.957Z,58.40
2017-10-19T00:06:51.241Z,58.00
2017-10-19T00:07:52.664Z,58.00
2017-10-19T00:08:54.705Z,58.10
2017-10-19T00:09:56.003Z,58.10
2017-10-19T00:10:57.293Z,58.00
2017-10-19T00:11:59.308Z,57.90
2017-10-19T00:13:00.604Z,57.90
2017-10-19T00:14:01.901Z,57.90
2017-10-19T00:15:03.175Z,57.70
2017-10-19T00:16:04.480Z,57.80
2017-10-19T00:17:06.533Z,58.60
2017-10-19T00:18:07.865Z,58.10
2017-10-19T00:19:09.190Z,58.20
2017-10-19T00:20:10.475Z,58.00
2017-10-19T00:21:11.788Z,57.80
2017-10-19T00:22:13.072Z,58.00
2017-10-19T00:23:14.397Z,58.10
2017-10-19T00:24:15.735Z,58.20
2017-10-19T00:25:17.020Z,58.00
2017-10-19T00:26:18.317Z,57.80
2017-10-19T00:27:19.614Z,57.80
2017-10-19T00:28:21.669Z,57.90
2017-10-19T00:29:22.988Z,57.80
2017-10-19T00:30:24.300Z,58.00
2017-10-19T00:31:25.589Z,58.10
2017-10-19T00:32:27.619Z,57.90
2017-10-19T00:33:28.936Z,57.90
2017-10-19T00:34:30.236Z,57.80
2017-10-19T00:35:31.525Z,58.00
2017-10-19T00:36:32.813Z,57.90
2017-10-19T00:37:34.116Z,57.50
2017-10-19T00:38:35.936Z,57.90
2017-10-19T00:39:37.254Z,57.80
2017-10-19T00:40:38.568Z,58.20
2017-10-19T00:41:41.459Z,57.60
2017-10-19T00:42:42.775Z,57.60
2017-10-19T00:43:44.854Z,57.70
2017-10-19T00:44:46.144Z,57.70
2017-10-19T00:45:47.526Z,57.60
2017-10-19T00:46:48.829Z,58.10
2017-10-19T00:47:50.151Z,58.00
2017-10-19T00:48:52.317Z,58.00
2017-10-19T00:49:53.601Z,57.90
2017-10-19T00:50:54.911Z,58.00
2017-10-19T00:51:56.946Z,57.50
2017-10-19T00:52:58.258Z,57.40
2017-10-19T00:53:59.580Z,57.50
2017-10-19T00:55:00.876Z,57.50
2017-10-19T00:56:02.947Z,57.60
2017-10-19T00:57:04.263Z,57.50
2017-10-19T00:58:06.333Z,57.80
2017-10-19T00:59:08.543Z,57.70
2017-10-19T01:00:09.998Z,57.60
2017-10-19T01:01:11.300Z,58.40
2017-10-19T01:02:12.586Z,57.60
2017-10-19T01:03:13.837Z,57.40
2017-10-19T01:04:16.671Z,57.20
2017-10-19T01:05:18.891Z,57.20
2017-10-19T01:06:20.200Z,57.00
2017-10-19T01:07:21.557Z,57.20
2017-10-19T01:08:23.876Z,57.00
2017-10-19T01:09:25.237Z,57.00
2017-10-19T01:10:26.536Z,57.10
2017-10-19T01:11:27.836Z,57.10
2017-10-19T01:12:29.153Z,57.00
2017-10-19T01:13:31.199Z,57.00
2017-10-19T01:14:32.556Z,56.90
2017-10-19T01:15:34.596Z,57.20
2017-10-19T01:16:35.892Z,57.10
2017-10-19T01:17:37.208Z,57.60
2017-10-19T01:18:38.501Z,57.40
2017-10-19T01:19:39.824Z,57.20
2017-10-19T01:20:41.125Z,57.10
2017-10-19T01:21:42.403Z,57.20
2017-10-19T01:22:43.730Z,57.40
2017-10-19T01:23:45.032Z,57.80
2017-10-19T01:24:46.431Z,57.80
2017-10-19T01:25:47.736Z,57.50
2017-10-19T01:26:49.034Z,57.10
2017-10-19T01:27:51.108Z,57.40
2017-10-19T01:28:52.432Z,57.40
2017-10-19T01:29:53.806Z,57.30
2017-10-19T01:30:55.843Z,57.10
2017-10-19T01:31:57.171Z,57.10
2017-10-19T01:32:58.464Z,57.00
2017-10-19T01:33:59.777Z,56.80
2017-10-19T01:35:01.102Z,56.60
2017-10-19T01:36:02.433Z,56.80
2017-10-19T01:37:03.716Z,57.00
2017-10-19T01:38:05.013Z,56.50
2017-10-19T01:39:06.354Z,56.40
2017-10-19T01:40:07.698Z,56.40
2017-10-19T01:41:09.036Z,56.40
2017-10-19T01:42:10.400Z,56.50
2017-10-19T01:43:11.713Z,56.40
2017-10-19T01:44:13.006Z,56.40
2017-10-19T01:45:15.096Z,56.30
2017-10-19T01:46:16.396Z,56.20
2017-10-19T01:47:18.445Z,56.00
2017-10-19T01:48:20.481Z,56.30
2017-10-19T01:49:21.852Z,56.20
2017-10-19T01:50:23.196Z,56.20
2017-10-19T01:51:24.500Z,56.10
2017-10-19T01:52:25.804Z,56.30
2017-10-19T01:53:27.084Z,56.40
2017-10-19T01:54:28.418Z,56.40
2017-10-19T01:55:29.758Z,56.60
2017-10-19T01:56:31.077Z,56.40
2017-10-19T01:57:33.103Z,56.40
2017-10-19T01:58:34.410Z,56.30
2017-10-19T01:59:36.456Z,56.60
2017-10-19T02:00:38.523Z,56.40
2017-10-19T02:01:39.783Z,56.40
2017-10-19T02:02:41.109Z,56.60
2017-10-19T02:03:42.413Z,56.30
2017-10-19T02:04:43.721Z,56.50
2017-10-19T02:05:45.045Z,56.50
2017-10-19T02:06:46.351Z,56.60
2017-10-19T02:07:47.636Z,56.40
2017-10-19T02:08:48.916Z,56.70
2017-10-19T02:09:50.942Z,56.80
2017-10-19T02:10:52.280Z,56.80
2017-10-19T02:11:53.573Z,56.90
2017-10-19T02:12:54.855Z,57.00
2017-10-19T02:13:56.131Z,56.70
2017-10-19T02:14:57.429Z,56.80
2017-10-19T02:15:58.779Z,57.10
2017-10-19T02:17:00.820Z,57.10
2017-10-19T02:18:02.139Z,57.00
2017-10-19T02:19:03.408Z,56.90
2017-10-19T02:20:04.716Z,56.60
2017-10-19T02:21:06.861Z,56.50
2017-10-19T02:22:08.148Z,56.50
2017-10-19T02:23:11.068Z,57.00
2017-10-19T02:24:12.367Z,57.00
2017-10-19T02:25:14.435Z,56.90
2017-10-19T02:26:15.768Z,56.90
2017-10-19T02:27:17.829Z,57.30
2017-10-19T02:28:19.104Z,57.30
2017-10-19T02:29:20.413Z,57.10
2017-10-19T02:30:21.699Z,56.80
2017-10-19T02:31:23.069Z,56.90
2017-10-19T02:32:25.113Z,56.70
2017-10-19T02:33:27.140Z,56.60
2017-10-19T02:34:28.437Z,56.60
2017-10-19T02:35:29.761Z,56.60
2017-10-19T02:36:31.201Z,56.90
2017-10-19T02:37:32.506Z,57.10
2017-10-19T02:38:33.821Z,57.30
2017-10-19T02:39:35.100Z,57.30
2017-10-19T02:40:37.148Z,57.40
2017-10-19T02:41:38.531Z,57.40
2017-10-19T02:42:39.824Z,57.80
2017-10-19T02:43:41.856Z,57.80
2017-10-19T02:44:43.233Z,57.70
2017-10-19T02:45:45.237Z,57.80
2017-10-19T02:46:46.559Z,57.80
2017-10-19T02:47:47.872Z,57.80
2017-10-19T02:48:49.178Z,57.90
2017-10-19T02:49:50.479Z,57.90
2017-10-19T02:50:51.786Z,58.20
2017-10-19T02:51:53.099Z,57.90
2017-10-19T02:52:54.431Z,57.40
2017-10-19T02:53:56.461Z,57.60
2017-10-19T02:54:57.772Z,57.50
2017-10-19T02:55:59.100Z,57.40
2017-10-19T02:57:00.432Z,58.00
2017-10-19T02:58:01.714Z,57.80
2017-10-19T02:59:03.003Z,57.90
2017-10-19T03:00:04.289Z,57.60
2017-10-19T03:01:05.619Z,57.50
2017-10-19T03:02:07.689Z,58.10
2017-10-19T03:03:09.008Z,58.10
2017-10-19T03:04:10.309Z,57.90
2017-10-19T03:05:11.658Z,57.90
2017-10-19T03:06:12.937Z,57.80
2017-10-19T03:07:14.275Z,58.10
2017-10-19T03:08:15.570Z,58.10
2017-10-19T03:09:19.921Z,58.10
2017-10-19T03:10:21.207Z,58.00
2017-10-19T03:11:22.496Z,58.00
2017-10-19T03:12:23.820Z,58.10
2017-10-19T03:13:25.153Z,58.20
2017-10-19T03:14:26.443Z,58.10
2017-10-19T03:15:28.479Z,58.20
2017-10-19T03:16:30.555Z,58.70
2017-10-19T03:17:32.641Z,58.60
2017-10-19T03:18:33.927Z,58.60
2017-10-19T03:19:35.243Z,58.60
2017-10-19T03:20:36.560Z,58.80
2017-10-19T03:21:37.856Z,58.60
2017-10-19T03:22:39.915Z,58.70
2017-10-19T03:23:41.989Z,58.70
2017-10-19T03:24:43.284Z,59.50
2017-10-19T03:25:44.569Z,59.50
2017-10-19T03:26:45.883Z,59.40
2017-10-19T03:27:47.947Z,59.40
2017-10-19T03:28:49.239Z,59.40
2017-10-19T03:29:50.530Z,59.40
2017-10-19T03:30:51.820Z,59.50
2017-10-19T03:31:53.132Z,59.40
2017-10-19T03:32:54.460Z,59.50
2017-10-19T03:33:55.825Z,59.60
2017-10-19T03:34:57.149Z,59.40
2017-10-19T03:35:58.426Z,59.50
2017-10-19T03:36:59.695Z,59.50
2017-10-19T03:38:01.018Z,59.90
2017-10-19T03:39:03.135Z,59.50
2017-10-19T03:40:04.416Z,59.50
2017-10-19T03:41:05.719Z,59.70
2017-10-19T03:42:07.824Z,59.50
2017-10-19T03:43:09.131Z,59.50
2017-10-19T03:44:11.174Z,59.30
2017-10-19T03:45:12.465Z,59.30
2017-10-19T03:46:13.765Z,58.50
2017-10-19T03:47:15.804Z,58.70
2017-10-19T03:48:17.889Z,58.70
2017-10-19T03:49:20.016Z,58.60
2017-10-19T03:50:21.360Z,58.60
2017-10-19T03:51:23.375Z,58.60
2017-10-19T03:52:24.689Z,58.60
2017-10-19T03:53:26.058Z,59.50
2017-10-19T03:54:27.346Z,59.50
2017-10-19T03:55:29.402Z,59.50
2017-10-19T03:56:30.717Z,59.40
2017-10-19T03:57:32.131Z,59.40
2017-10-19T03:58:33.451Z,59.40
2017-10-19T03:59:34.795Z,59.40
2017-10-19T04:00:37.014Z,59.40
2017-10-19T04:01:39.065Z,59.40
2017-10-19T04:02:41.117Z,59.40
2017-10-19T04:03:43.195Z,59.40
2017-10-19T04:04:44.504Z,59.40
2017-10-19T04:05:46.540Z,59.40
2017-10-19T04:06:47.860Z,59.40
2017-10-19T04:07:49.201Z,59.50
2017-10-19T04:08:50.505Z,59.80
2017-10-19T04:09:51.808Z,59.40
2017-10-19T04:10:53.834Z,59.60
2017-10-19T04:11:55.116Z,59.50
2017-10-19T04:12:56.419Z,59.70
2017-10-19T04:13:57.764Z,59.40
2017-10-19T04:14:59.100Z,59.40
2017-10-19T04:16:00.428Z,59.40
2017-10-19T04:17:02.447Z,59.50
2017-10-19T04:18:03.783Z,59.40
2017-10-19T04:19:05.108Z,59.50
2017-10-19T04:20:06.413Z,59.40
2017-10-19T04:21:07.705Z,59.40
2017-10-19T04:22:09.014Z,59.70
2017-10-19T04:23:10.344Z,59.40
2017-10-19T04:24:12.440Z,59.50
2017-10-19T04:25:13.779Z,59.50
2017-10-19T04:26:15.071Z,59.80
2017-10-19T04:27:17.089Z,59.50
2017-10-19T04:28:18.395Z,59.50
2017-10-19T04:29:19.764Z,59.50
2017-10-19T04:30:21.071Z,59.50
2017-10-19T04:31:22.371Z,59.50
2017-10-19T04:32:24.455Z,59.50
2017-10-19T04:33:25.763Z,59.50
2017-10-19T04:34:27.825Z,59.50
2017-10-19T04:35:29.859Z,59.50
2017-10-19T04:36:31.212Z,60.00
2017-10-19T04:37:33.239Z,59.50
2017-10-19T04:38:34.579Z,59.50
2017-10-19T04:39:35.923Z,59.50
2017-10-19T04:40:37.236Z,59.50
2017-10-19T04:41:38.498Z,59.50
2017-10-19T04:42:39.868Z,58.60
2017-10-19T04:43:41.951Z,58.60
2017-10-19T04:44:43.292Z,59.50
2017-10-19T04:45:44.596Z,58.70
2017-10-19T04:46:46.652Z,58.70
2017-10-19T04:47:48.711Z,58.60
2017-10-19T04:48:50.748Z,58.60
2017-10-19T04:49:52.098Z,59.50
2017-10-19T04:50:54.136Z,58.60
2017-10-19T04:51:55.451Z,58.60
2017-10-19T04:52:56.738Z,58.60
2017-10-19T04:53:58.056Z,58.60
2017-10-19T04:55:00.173Z,58.70
2017-10-19T04:56:01.458Z,58.70
2017-10-19T04:57:03.479Z,58.60
2017-10-19T04:58:04.799Z,58.60
2017-10-19T04:59:06.116Z,58.60
2017-10-19T05:00:07.487Z,58.60
2017-10-19T05:01:08.768Z,58.60
2017-10-19T05:02:10.804Z,58.60
2017-10-19T05:03:12.829Z,58.70
2017-10-19T05:04:14.899Z,58.70
2017-10-19T05:05:16.236Z,58.60
2017-10-19T05:06:17.530Z,58.70
2017-10-19T05:07:18.847Z,58.70
2017-10-19T05:08:20.865Z,58.40
2017-10-19T05:09:22.181Z,58.40
2017-10-19T05:10:23.507Z,58.50
2017-10-19T05:11:24.865Z,58.50
2017-10-19T05:12:26.216Z,58.70
2017-10-19T05:13:28.469Z,58.10
2017-10-19T05:14:29.786Z,58.10
2017-10-19T05:15:31.206Z,58.40
2017-10-19T05:16:32.515Z,58.50
2017-10-19T05:17:34.568Z,58.30
2017-10-19T05:18:35.856Z,58.20
2017-10-19T05:19:37.176Z,59.00
2017-10-19T05:20:38.561Z,58.50
2017-10-19T05:21:39.873Z,58.50
2017-10-19T05:22:41.190Z,58.20
2017-10-19T05:23:42.535Z,58.20
2017-10-19T05:24:43.827Z,58.00
2017-10-19T05:25:45.360Z,58.00
2017-10-19T05:26:46.792Z,58.10
2017-10-19T05:27:48.160Z,58.20
2017-10-19T05:28:50.324Z,58.20
2017-10-19T05:29:52.441Z,58.20
2017-10-19T05:30:53.908Z,58.20
2017-10-19T05:31:56.135Z,58.10
2017-10-19T05:32:57.541Z,58.20
2017-10-19T05:33:59.160Z,58.40
2017-10-19T05:35:00.660Z,58.40
2017-10-19T05:36:02.095Z,58.40
2017-10-19T05:37:03.413Z,58.30
2017-10-19T05:38:04.741Z,58.50
2017-10-19T05:39:06.021Z,58.70
2017-10-19T05:40:07.357Z,58.70
2017-10-19T05:41:08.681Z,58.70
2017-10-19T05:42:09.991Z,58.70
2017-10-19T05:43:11.332Z,58.70
2017-10-19T05:44:12.618Z,58.70
2017-10-19T05:45:13.915Z,58.70
2017-10-19T05:46:15.252Z,58.70
2017-10-19T05:47:16.562Z,59.30
2017-10-19T05:48:18.585Z,58.70
2017-10-19T05:49:19.861Z,58.70
2017-10-19T05:50:21.906Z,58.70
2017-10-19T05:51:24.011Z,58.70
2017-10-19T05:52:25.308Z,58.70
2017-10-19T05:53:27.357Z,58.70
2017-10-19T05:54:29.396Z,58.80
2017-10-19T05:55:30.713Z,58.80
2017-10-19T05:56:32.041Z,58.80
2017-10-19T05:57:33.309Z,58.80
2017-10-19T05:58:34.587Z,58.90
2017-10-19T05:59:35.889Z,58.90
2017-10-19T06:00:37.170Z,58.90
2017-10-19T06:01:38.520Z,58.90
2017-10-19T06:02:39.825Z,58.90
2017-10-19T06:03:41.153Z,59.00
2017-10-19T06:04:42.468Z,59.00
2017-10-19T06:05:43.795Z,59.10
2017-10-19T06:06:45.145Z,59.00
2017-10-19T06:07:46.434Z,58.90
2017-10-19T06:08:47.774Z,58.80
2017-10-19T06:09:49.104Z,59.00
2017-10-19T06:10:50.393Z,58.80
2017-10-19T06:11:51.712Z,58.50
2017-10-19T06:12:53.011Z,57.90
2017-10-19T06:13:54.317Z,57.50
2017-10-19T06:14:55.621Z,57.40
2017-10-19T06:15:56.915Z,56.60
2017-10-19T06:16:58.966Z,56.00
2017-10-19T06:18:00.995Z,55.50
2017-10-19T06:19:02.327Z,55.30
2017-10-19T06:20:04.286Z,54.90
2017-10-19T06:21:05.572Z,54.60
2017-10-19T06:22:06.912Z,54.00
2017-10-19T06:23:08.186Z,53.30
2017-10-19T06:24:09.466Z,52.90
2017-10-19T06:25:10.760Z,52.60
2017-10-19T06:26:12.076Z,52.70
2017-10-19T06:27:13.392Z,52.10
2017-10-19T06:28:14.704Z,51.90
2017-10-19T06:29:16.752Z,51.10
2017-10-19T06:30:18.849Z,50.80
2017-10-19T06:31:20.161Z,50.70
2017-10-19T06:32:22.285Z,50.10
2017-10-19T06:33:23.573Z,50.00
2017-10-19T06:34:24.888Z,49.90
2017-10-19T06:35:26.916Z,49.40
2017-10-19T06:36:28.236Z,49.30
2017-10-19T06:37:29.608Z,49.30
2017-10-19T06:38:30.937Z,49.10
2017-10-19T06:39:32.245Z,48.30
2017-10-19T06:40:33.523Z,48.00
2017-10-19T06:41:34.797Z,47.70
2017-10-19T06:42:36.133Z,47.40
2017-10-19T06:43:37.515Z,47.40
2017-10-19T06:44:38.862Z,47.00
2017-10-19T06:45:40.169Z,46.80
2017-10-19T06:46:41.478Z,47.00
2017-10-19T06:47:42.808Z,47.00
2017-10-19T06:48:44.102Z,46.50
2017-10-19T06:49:45.397Z,46.70
2017-10-19T06:50:46.692Z,46.60
2017-10-19T06:51:47.976Z,46.30
2017-10-19T06:52:49.300Z,46.30
2017-10-19T06:53:50.588Z,46.20
2017-10-19T06:54:51.947Z,45.50
2017-10-19T06:55:53.225Z,45.40
2017-10-19T06:56:54.507Z,45.00
2017-10-19T06:57:55.881Z,45.20
2017-10-19T06:58:57.161Z,44.90
2017-10-19T06:59:58.468Z,45.60
2017-10-19T07:00:59.770Z,45.80
2017-10-19T07:02:01.075Z,45.60
2017-10-19T07:03:02.425Z,44.70
2017-10-19T07:04:03.701Z,43.40
2017-10-19T07:05:05.783Z,42.30
2017-10-19T07:06:07.076Z,42.20
2017-10-19T07:07:08.405Z,41.30
2017-10-19T07:08:09.740Z,41.40
2017-10-19T07:09:11.043Z,41.80
2017-10-19T07:10:12.345Z,41.00
2017-10-19T07:11:14.379Z,41.20
2017-10-19T07:12:15.684Z,41.10
2017-10-19T07:13:16.996Z,40.80
2017-10-19T07:14:18.297Z,41.00
2017-10-19T07:15:20.314Z,40.50
2017-10-19T07:16:21.610Z,39.70
2017-10-19T07:17:22.882Z,39.70
2017-10-19T07:18:24.203Z,39.20
2017-10-19T07:19:25.522Z,38.90
2017-10-19T07:20:26.796Z,38.80
2017-10-19T07:21:28.108Z,39.30
2017-10-19T07:22:29.384Z,39.00
2017-10-19T07:23:30.727Z,39.50
2017-10-19T07:24:32.068Z,39.50
2017-10-19T07:25:33.357Z,40.10
2017-10-19T07:26:34.637Z,39.60
2017-10-19T07:27:35.924Z,39.40
2017-10-19T07:28:37.251Z,38.60
2017-10-19T07:29:39.355Z,38.60
2017-10-19T07:30:40.625Z,38.60
2017-10-19T07:31:41.927Z,38.70
2017-10-19T07:32:43.249Z,38.90
2017-10-19T07:33:44.572Z,38.70
2017-10-19T07:34:45.893Z,39.90
2017-10-19T07:35:47.913Z,39.50
2017-10-19T07:36:49.232Z,39.40
2017-10-19T07:37:50.516Z,38.80
2017-10-19T07:38:52.563Z,38.30
2017-10-19T07:39:53.835Z,38.30
2017-10-19T07:40:55.111Z,38.40
2017-10-19T07:41:56.417Z,37.70
2017-10-19T07:42:57.708Z,36.70
2017-10-19T07:43:59.097Z,37.40
2017-10-19T07:45:00.398Z,37.60
2017-10-19T07:46:02.442Z,36.80
2017-10-19T07:47:03.743Z,36.70
2017-10-19T07:48:05.020Z,36.80
2017-10-19T07:49:07.091Z,37.40
2017-10-19T07:50:09.119Z,36.80
2017-10-19T07:51:10.400Z,36.70
2017-10-19T07:52:11.694Z,36.20
2017-10-19T07:53:12.968Z,36.20
2017-10-19T07:54:14.332Z,36.00
2017-10-19T07:55:15.619Z,36.20
2017-10-19T07:56:17.655Z,36.00
2017-10-19T07:57:18.924Z,35.90
2017-10-19T07:58:20.944Z,36.40
2017-10-19T07:59:22.256Z,36.10
2017-10-19T08:00:23.537Z,37.00
2017-10-19T08:01:25.584Z,36.20
2017-10-19T08:02:27.065Z,36.20
2017-10-19T08:03:28.370Z,36.20
2017-10-19T08:04:30.459Z,36.50
2017-10-19T08:05:31.756Z,36.50
2017-10-19T08:06:33.044Z,36.50
2017-10-19T08:07:34.328Z,36.10
2017-10-19T08:08:35.610Z,35.70
2017-10-19T08:09:36.945Z,35.40
2017-10-19T08:10:38.218Z,36.30
2017-10-19T08:11:39.508Z,36.60
2017-10-19T08:12:40.824Z,36.00
2017-10-19T08:13:42.102Z,36.30
2017-10-19T08:14:43.444Z,36.10
2017-10-19T08:15:44.761Z,35.80
2017-10-19T08:16:46.072Z,36.10
2017-10-19T08:17:47.354Z,36.20
2017-10-19T08:18:48.663Z,35.20
2017-10-19T08:19:50.741Z,34.50
2017-10-19T08:20:52.036Z,34.40
2017-10-19T08:21:53.322Z,35.10
2017-10-19T08:22:54.630Z,34.20
2017-10-19T08:23:56.698Z,35.30
2017-10-19T08:24:58.009Z,35.30
2017-10-19T08:25:59.301Z,34.50
2017-10-19T08:27:00.620Z,34.30
2017-10-19T08:28:01.942Z,35.60
2017-10-19T08:29:03.252Z,35.80
2017-10-19T08:30:04.595Z,34.90
2017-10-19T08:31:05.898Z,35.40
2017-10-19T08:32:07.228Z,35.90
2017-10-19T08:33:08.508Z,34.70
2017-10-19T08:34:09.797Z,35.20
2017-10-19T08:35:11.133Z,35.20
2017-10-19T08:36:12.438Z,34.70
2017-10-19T08:37:13.722Z,34.80
2017-10-19T08:38:14.998Z,35.30
2017-10-19T08:39:17.003Z,35.20
2017-10-19T08:40:18.315Z,35.10
2017-10-19T08:41:19.919Z,35.60
2017-10-19T08:42:21.204Z,35.50
2017-10-19T08:43:22.529Z,35.50
2017-10-19T08:44:24.637Z,35.50
2017-10-19T08:45:25.958Z,35.40
2017-10-19T08:46:27.244Z,35.60
2017-10-19T08:47:29.261Z,36.70
2017-10-19T08:48:30.547Z,36.70
2017-10-19T08:49:32.579Z,36.40
2017-10-19T08:50:33.912Z,36.30
2017-10-19T08:51:35.197Z,35.80
2017-10-19T08:52:36.493Z,36.00
2017-10-19T08:53:37.772Z,36.30
2017-10-19T08:54:39.072Z,36.70
2017-10-19T08:55:40.389Z,36.80
2017-10-19T08:56:41.686Z,37.10
2017-10-19T08:57:42.985Z,37.20
2017-10-19T08:58:44.299Z,37.50
2017-10-19T08:59:45.632Z,37.40
2017-10-19T09:00:46.936Z,37.90
2017-10-19T09:01:48.228Z,38.10
2017-10-19T09:02:50.326Z,39.10
2017-10-19T09:03:51.605Z,39.00
2017-10-19T09:04:52.881Z,39.60
2017-10-19T09:05:54.977Z,38.90
2017-10-19T09:06:56.263Z,38.90
2017-10-19T09:07:58.295Z,39.50
2017-10-19T09:08:59.576Z,39.50
2017-10-19T09:10:00.869Z,38.70
2017-10-19T09:11:02.185Z,38.60
2017-10-19T09:12:03.486Z,39.80
2017-10-19T09:13:04.812Z,40.00
2017-10-19T09:14:06.834Z,40.40
2017-10-19T09:15:08.126Z,40.40
2017-10-19T09:16:10.192Z,39.50
2017-10-19T09:17:11.472Z,39.50
2017-10-19T09:18:12.732Z,39.20
2017-10-19T09:19:14.748Z,38.70
2017-10-19T09:20:16.052Z,38.60
2017-10-19T09:21:17.372Z,38.60
2017-10-19T09:22:19.395Z,39.50
2017-10-19T09:23:20.697Z,39.50
2017-10-19T09:24:21.991Z,39.00
2017-10-19T09:25:24.046Z,37.40
2017-10-19T09:26:26.084Z,36.70
2017-10-19T09:27:27.376Z,36.60
2017-10-19T09:28:28.657Z,36.60
2017-10-19T09:29:29.941Z,36.30
2017-10-19T09:30:31.223Z,35.70
2017-10-19T09:31:32.578Z,36.80
2017-10-19T09:32:33.871Z,36.50
2017-10-19T09:33:35.176Z,36.70
2017-10-19T09:34:36.476Z,36.60
2017-10-19T09:35:37.751Z,38.00
2017-10-19T09:36:39.090Z,38.50
2017-10-19T09:37:40.393Z,37.60
2017-10-19T09:38:41.708Z,37.10
2017-10-19T09:39:43.022Z,37.40
2017-10-19T09:40:44.281Z,37.60
2017-10-19T09:41:45.599Z,37.10
2017-10-19T09:42:46.896Z,37.60
2017-10-19T09:43:48.923Z,36.70
2017-10-19T09:44:50.244Z,36.60
2017-10-19T09:45:51.545Z,35.90
2017-10-19T09:46:52.889Z,37.20
2017-10-19T09:47:54.208Z,35.90
2017-10-19T09:48:56.252Z,37.10
2017-10-19T09:49:58.265Z,38.30
2017-10-19T09:50:59.535Z,38.30
2017-10-19T09:52:01.599Z,37.30
2017-10-19T09:53:03.636Z,36.90
2017-10-19T09:54:04.916Z,36.10
2017-10-19T09:55:06.193Z,37.20
2017-10-19T09:56:07.501Z,35.80
2017-10-19T09:57:08.835Z,35.80
2017-10-19T09:59:18.093Z,36.90
2017-10-19T10:00:19.391Z,37.50
2017-10-19T10:01:20.680Z,38.70
2017-10-19T10:02:21.990Z,39.60
2017-10-19T10:03:23.297Z,40.10
2017-10-19T10:04:25.297Z,40.90
2017-10-19T10:05:27.329Z,41.40
2017-10-19T10:06:28.628Z,41.40
2017-10-19T10:07:30.689Z,41.90
2017-10-19T10:08:32.731Z,40.40
2017-10-19T10:09:34.758Z,41.40
2017-10-19T10:10:36.063Z,41.40
2017-10-19T10:11:37.336Z,42.60
2017-10-19T10:12:38.757Z,43.30
2017-10-19T10:13:40.057Z,42.60
2017-10-19T10:14:42.101Z,43.10
2017-10-19T10:15:44.150Z,42.70
2017-10-19T10:16:45.432Z,42.70
2017-10-19T10:17:46.769Z,43.00
2017-10-19T10:18:48.087Z,42.90
2017-10-19T10:19:49.375Z,42.80
2017-10-19T10:20:50.677Z,42.90
2017-10-19T10:21:51.972Z,42.30
2017-10-19T10:22:53.309Z,42.70
2017-10-19T10:23:54.617Z,43.00
2017-10-19T10:24:55.897Z,41.70
2017-10-19T10:25:57.929Z,41.50
2017-10-19T10:26:59.985Z,41.80
2017-10-19T10:28:01.379Z,41.50
2017-10-19T10:29:02.695Z,42.10
2017-10-19T10:30:04.703Z,41.60
2017-10-19T10:31:06.012Z,41.50
2017-10-19T10:32:07.313Z,41.40
2017-10-19T10:33:09.365Z,42.10
2017-10-19T10:34:11.398Z,42.10
2017-10-19T10:35:12.682Z,42.10
2017-10-19T10:36:13.965Z,42.30
2017-10-19T10:37:15.248Z,41.50
2017-10-19T10:38:17.315Z,40.50
2017-10-19T10:39:18.605Z,40.60
2017-10-19T10:40:19.891Z,40.50
2017-10-19T10:41:21.183Z,40.20
2017-10-19T10:42:22.462Z,40.50
2017-10-19T10:43:23.784Z,41.20
2017-10-19T10:44:25.808Z,41.80
2017-10-19T10:45:27.120Z,42.40
2017-10-19T10:46:28.439Z,42.10
2017-10-19T10:47:30.494Z,40.50
2017-10-19T10:48:31.789Z,40.40
2017-10-19T10:49:33.077Z,40.90
2017-10-19T10:50:34.362Z,41.30
2017-10-19T10:51:35.682Z,41.90
2017-10-19T10:52:36.964Z,41.60
2017-10-19T10:53:38.291Z,41.30
2017-10-19T10:54:40.331Z,40.60
2017-10-19T10:55:42.544Z,40.60
2017-10-19T10:56:43.860Z,41.90
2017-10-19T10:57:45.148Z,41.30
2017-10-19T10:58:46.501Z,40.30
2017-10-19T10:59:47.780Z,41.10
2017-10-19T11:00:49.066Z,41.20
2017-10-19T11:01:50.354Z,42.10
2017-10-19T11:02:51.646Z,42.60
2017-10-19T11:03:52.974Z,40.70
2017-10-19T11:04:54.456Z,39.40
2017-10-19T11:05:55.744Z,38.70
2017-10-19T11:06:57.029Z,38.60
2017-10-19T11:07:58.316Z,39.90
2017-10-19T11:09:00.372Z,40.80
2017-10-19T11:10:01.676Z,40.80
2017-10-19T11:11:02.954Z,40.70
2017-10-19T11:12:04.306Z,40.50
2017-10-19T11:13:05.592Z,40.30
2017-10-19T11:14:06.937Z,41.30
2017-10-19T11:15:08.205Z,40.90
2017-10-19T11:16:09.484Z,38.60
2017-10-19T11:17:10.761Z,39.10
2017-10-19T11:18:12.082Z,39.20
2017-10-19T11:19:13.428Z,39.00
2017-10-19T11:20:14.705Z,39.70
2017-10-19T11:21:16.007Z,40.80
2017-10-19T11:22:17.284Z,39.40
2017-10-19T11:23:18.572Z,39.50
2017-10-19T11:24:19.886Z,39.60
2017-10-19T11:25:21.157Z,40.10
2017-10-19T11:26:22.456Z,40.10
2017-10-19T11:27:23.724Z,39.80
2017-10-19T11:28:24.993Z,39.60
2017-10-19T11:29:26.331Z,39.60
2017-10-19T11:30:27.626Z,39.30
2017-10-19T11:31:28.926Z,39.60
2017-10-19T11:32:30.953Z,40.40
2017-10-19T11:33:32.280Z,40.30
2017-10-19T11:34:33.593Z,40.40
2017-10-19T11:35:34.882Z,39.90
2017-10-19T11:36:36.165Z,40.50
2017-10-19T11:37:37.438Z,40.10
2017-10-19T11:38:38.707Z,40.40
2017-10-19T11:39:40.786Z,41.20
2017-10-19T11:40:42.092Z,41.10
2017-10-19T11:41:43.392Z,41.00
2017-10-19T11:42:44.677Z,41.00
2017-10-19T11:43:46.705Z,41.30
2017-10-19T11:44:48.012Z,41.20
2017-10-19T11:45:49.325Z,41.40
2017-10-19T11:46:50.626Z,42.00
2017-10-19T11:47:51.927Z,42.90
2017-10-19T11:48:53.216Z,42.30
2017-10-19T11:49:55.284Z,41.70
2017-10-19T11:50:56.557Z,41.70
2017-10-19T11:51:57.828Z,41.70
2017-10-19T11:52:59.096Z,41.30
2017-10-19T11:54:00.408Z,41.70
2017-10-19T11:55:01.750Z,41.70
2017-10-19T11:56:03.056Z,41.70
2017-10-19T11:57:04.326Z,41.50
2017-10-19T11:58:06.422Z,41.80
2017-10-19T11:59:07.701Z,41.60
2017-10-19T12:00:09.047Z,41.80
2017-10-19T12:01:10.335Z,41.80
2017-10-19T12:02:11.640Z,41.40
2017-10-19T12:03:13.680Z,42.10
2017-10-19T12:04:14.985Z,42.60
2017-10-19T12:05:16.315Z,42.30
2017-10-19T12:06:17.622Z,42.40
2017-10-19T12:07:18.904Z,42.40
2017-10-19T12:08:20.184Z,42.30
2017-10-19T12:09:22.224Z,42.50
2017-10-19T12:10:23.545Z,42.40
2017-10-19T12:11:24.818Z,43.20
2017-10-19T12:12:26.830Z,43.10
2017-10-19T12:13:28.119Z,43.00
2017-10-19T12:14:29.387Z,42.60
2017-10-19T12:15:30.718Z,42.50
2017-10-19T12:16:31.991Z,42.70
2017-10-19T12:17:33.275Z,43.10
2017-10-19T12:18:34.565Z,43.00
2017-10-19T12:19:35.850Z,43.10
2017-10-19T12:20:37.177Z,43.70
2017-10-19T12:21:38.457Z,43.50
2017-10-19T12:22:39.738Z,43.40
2017-10-19T12:23:41.779Z,42.70
2017-10-19T12:24:43.068Z,42.70
2017-10-19T12:25:44.497Z,42.80
2017-10-19T12:26:45.773Z,42.50
2017-10-19T12:27:47.055Z,42.30
2017-10-19T12:28:48.328Z,42.40
2017-10-19T12:29:50.360Z,42.10
2017-10-19T12:30:51.689Z,42.10
2017-10-19T12:31:52.959Z,42.00
2017-10-19T12:32:54.997Z,41.90
2017-10-19T12:33:56.335Z,42.20
2017-10-19T12:34:57.624Z,41.90
2017-10-19T12:35:58.945Z,42.20
2017-10-19T12:37:00.221Z,42.20
2017-10-19T12:38:02.316Z,42.00
2017-10-19T12:39:03.672Z,42.00
2017-10-19T12:40:04.945Z,42.20
2017-10-19T12:41:07.015Z,42.20
2017-10-19T12:42:08.294Z,42.20
2017-10-19T12:43:09.596Z,42.60
2017-10-19T12:44:10.872Z,43.50
2017-10-19T12:45:12.170Z,43.10
2017-10-19T12:46:13.545Z,42.30
2017-10-19T12:47:14.829Z,43.80
2017-10-19T12:48:16.886Z,43.50
2017-10-19T12:49:18.910Z,43.90
2017-10-19T12:50:20.189Z,43.20
2017-10-19T12:51:21.506Z,42.70
2017-10-19T12:52:23.536Z,42.70
2017-10-19T12:53:24.808Z,42.70
2017-10-19T12:54:26.844Z,44.10
2017-10-19T12:55:28.145Z,44.10
2017-10-19T12:56:29.464Z,43.10
2017-10-19T12:57:30.729Z,43.00
2017-10-19T12:58:32.007Z,42.30
2017-10-19T12:59:34.039Z,43.00
2017-10-19T13:00:35.310Z,43.00
2017-10-19T13:01:36.640Z,43.10
2017-10-19T13:02:38.652Z,42.80
2017-10-19T13:03:39.937Z,42.70
2017-10-19T13:04:41.235Z,42.70
2017-10-19T13:05:42.513Z,42.70
2017-10-19T13:06:43.832Z,42.70
2017-10-19T13:07:45.847Z,42.70
2017-10-19T13:08:47.128Z,42.70
2017-10-19T13:09:49.167Z,42.60
2017-10-19T13:10:50.454Z,42.60
2017-10-19T13:11:51.751Z,43.00
2017-10-19T13:12:53.825Z,43.30